Grethel, Kentucky
Current Conditions -  °F | °C
As of 9:55 PM on Tuesday 25 Nov 2014 (Local Time) from KPBX Reporting Station
Clear Clear  
Wind Chill: 38°   Ceiling: Unl
Heat Index: 43°   Visibility: 10mi
Dew Point: 28°   Wind: 7mph
Humidity: 56%   Direction: 360°N
Pressure: 30.11"   Gusts: NA
Location:  37.49°N, 82.65°W
Report Text: KPBX 260255Z AUTO 36006KT 10SM CLR 06/M02 A3011 RMK AO2 T00591022
Loading
Personal Weather Stations






























Interactive Weather Map New forecast layout! Learn more

10-Day Weather Forecast

Advertisements
Track Severe Weather on mobile